sensor_id;sensor_type;location;lat;lon;timestamp;temperature;humidity
46335;DHT22;32051;48.882;9.210;2023-04-03T07:37:53;5.70;99.90
46335;DHT22;32051;48.882;9.210;2023-04-03T07:40:18;5.60;99.90
46335;DHT22;32051;48.882;9.210;2023-04-03T07:42:44;5.80;99.90
46335;DHT22;32051;48.882;9.210;2023-04-03T07:45:10;5.90;99.90
46335;DHT22;32051;48.882;9.210;2023-04-03T07:47:36;6.10;99.90
46335;DHT22;32051;48.882;9.210;2023-04-03T07:50:02;6.20;99.90
46335;DHT22;32051;48.882;9.210;2023-04-03T07:52:27;6.50;99.90
46335;DHT22;32051;48.882;9.210;2023-04-03T07:54:53;6.70;99.90
46335;DHT22;32051;48.882;9.210;2023-04-03T07:57:19;7.00;99.90
46335;DHT22;32051;48.882;9.210;2023-04-03T07:59:44;7.30;99.90
46335;DHT22;32051;48.882;9.210;2023-04-03T08:02:13;7.50;99.90
46335;DHT22;32051;48.882;9.210;2023-04-03T08:04:38;7.60;99.90
46335;DHT22;32051;48.882;9.210;2023-04-03T08:07:05;7.60;99.90
46335;DHT22;32051;48.882;9.210;2023-04-03T08:09:31;7.70;99.90
46335;DHT22;32051;48.882;9.210;2023-04-03T08:11:57;7.70;99.90
46335;DHT22;32051;48.882;9.210;2023-04-03T08:14:23;7.70;99.90
46335;DHT22;32051;48.882;9.210;2023-04-03T08:16:49;7.80;99.90
46335;DHT22;32051;48.882;9.210;2023-04-03T08:19:15;7.90;99.90
46335;DHT22;32051;48.882;9.210;2023-04-03T08:21:44;7.90;99.90
46335;DHT22;32051;48.882;9.210;2023-04-03T08:24:10;7.90;99.90
46335;DHT22;32051;48.882;9.210;2023-04-03T08:26:36;7.90;99.90
46335;DHT22;32051;48.882;9.210;2023-04-03T08:29:02;7.70;99.90
46335;DHT22;32051;48.882;9.210;2023-04-03T08:31:28;7.60;99.90
46335;DHT22;32051;48.882;9.210;2023-04-03T08:33:54;7.40;99.90
46335;DHT22;32051;48.882;9.210;2023-04-03T08:36:22;7.30;99.90
46335;DHT22;32051;48.882;9.210;2023-04-03T08:38:49;7.20;99.90
46335;DHT22;32051;48.882;9.210;2023-04-03T08:49:13;7.60;99.90
46335;DHT22;32051;48.882;9.210;2023-04-03T08:51:46;7.50;99.90
46335;DHT22;32051;48.882;9.210;2023-04-03T08:54:24;7.60;99.90
46335;DHT22;32051;48.882;9.210;2023-04-03T08:56:52;7.70;99.90
46335;DHT22;32051;48.882;9.210;2023-04-03T08:59:26;7.80;99.90
46335;DHT22;32051;48.882;9.210;2023-04-03T09:01:53;7.90;99.90
46335;DHT22;32051;48.882;9.210;2023-04-03T09:04:20;8.80;99.90
46335;DHT22;32051;48.882;9.210;2023-04-03T09:06:50;8.00;99.90
46335;DHT22;32051;48.882;9.210;2023-04-03T09:09:35;8.10;99.90
46335;DHT22;32051;48.882;9.210;2023-04-03T09:12:21;8.40;99.90
46335;DHT22;32051;48.882;9.210;2023-04-03T09:18:02;8.50;99.90
46335;DHT22;32051;48.882;9.210;2023-04-03T09:26:12;8.50;99.90
46335;DHT22;32051;48.882;9.210;2023-04-03T09:28:41;8.70;99.90
46335;DHT22;32051;48.882;9.210;2023-04-03T09:31:23;9.00;99.90
46335;DHT22;32051;48.882;9.210;2023-04-03T09:33:52;9.10;99.90
46335;DHT22;32051;48.882;9.210;2023-04-03T09:36:55;9.00;99.90
46335;DHT22;32051;48.882;9.210;2023-04-03T09:39:24;8.90;99.50
46335;DHT22;32051;48.882;9.210;2023-04-03T09:42:31;8.90;99.90
46335;DHT22;32051;48.882;9.210;2023-04-03T09:45:18;8.80;98.30
46335;DHT22;32051;48.882;9.210;2023-04-03T09:47:47;8.70;99.90
46335;DHT22;32051;48.882;9.210;2023-04-03T09:52:39;8.50;99.90
46335;DHT22;32051;48.882;9.210;2023-04-03T09:55:15;8.30;99.50
46335;DHT22;32051;48.882;9.210;2023-04-03T09:57:42;8.10;99.70
46335;DHT22;32051;48.882;9.210;2023-04-03T10:00:38;8.20;99.90
46335;DHT22;32051;48.882;9.210;2023-04-03T10:03:20;8.20;99.90
46335;DHT22;32051;48.882;9.210;2023-04-03T10:05:47;8.30;99.90
46335;DHT22;32051;48.882;9.210;2023-04-03T10:10:40;8.20;97.70
46335;DHT22;32051;48.882;9.210;2023-04-03T10:13:11;8.10;99.20
46335;DHT22;32051;48.882;9.210;2023-04-03T10:15:44;8.00;98.20
46335;DHT22;32051;48.882;9.210;2023-04-03T10:18:29;7.80;98.10
46335;DHT22;32051;48.882;9.210;2023-04-03T10:21:02;7.80;99.50
46335;DHT22;32051;48.882;9.210;2023-04-03T10:23:44;7.80;98.80
46335;DHT22;32051;48.882;9.210;2023-04-03T10:26:37;7.80;99.20
46335;DHT22;32051;48.882;9.210;2023-04-03T10:34:45;8.10;96.70
46335;DHT22;32051;48.882;9.210;2023-04-03T10:37:27;8.10;96.70
46335;DHT22;32051;48.882;9.210;2023-04-03T10:40:09;8.10;96.80
46335;DHT22;32051;48.882;9.210;2023-04-03T10:42:48;8.00;98.00
46335;DHT22;32051;48.882;9.210;2023-04-03T10:45:43;8.00;97.90
46335;DHT22;32051;48.882;9.210;2023-04-03T10:53:35;8.00;96.60
46335;DHT22;32051;48.882;9.210;2023-04-03T10:58:50;7.70;96.70
46335;DHT22;32051;48.882;9.210;2023-04-03T11:01:26;7.70;97.40
46335;DHT22;32051;48.882;9.210;2023-04-03T11:04:00;7.70;96.80
46335;DHT22;32051;48.882;9.210;2023-04-03T11:06:39;7.80;97.00
46335;DHT22;32051;48.882;9.210;2023-04-03T11:09:22;7.80;96.10
46335;DHT22;32051;48.882;9.210;2023-04-03T11:11:53;7.80;95.90
46335;DHT22;32051;48.882;9.210;2023-04-03T11:14:24;7.50;96.00
46335;DHT22;32051;48.882;9.210;2023-04-03T11:19:36;7.60;97.40
46335;DHT22;32051;48.882;9.210;2023-04-03T11:25:20;7.70;97.90
46335;DHT22;32051;48.882;9.210;2023-04-03T11:27:59;7.70;97.70
46335;DHT22;32051;48.882;9.210;2023-04-03T11:33:11;7.60;98.40
46335;DHT22;32051;48.882;9.210;2023-04-03T11:35:47;7.60;98.10
46335;DHT22;32051;48.882;9.210;2023-04-03T11:38:30;7.70;97.50
46335;DHT22;32051;48.882;9.210;2023-04-03T11:40:57;7.70;98.10
46335;DHT22;32051;48.882;9.210;2023-04-03T11:43:29;7.60;98.90
46335;DHT22;32051;48.882;9.210;2023-04-03T11:46:03;7.60;97.90
46335;DHT22;32051;48.882;9.210;2023-04-03T11:56:59;7.80;96.30
46335;DHT22;32051;48.882;9.210;2023-04-03T11:59:24;7.80;97.50
46335;DHT22;32051;48.882;9.210;2023-04-03T12:01:57;7.80;96.90
46335;DHT22;32051;48.882;9.210;2023-04-03T12:04:27;7.80;96.70
46335;DHT22;32051;48.882;9.210;2023-04-03T12:07:02;7.80;96.40
46335;DHT22;32051;48.882;9.210;2023-04-03T12:14:53;8.00;97.30
46335;DHT22;32051;48.882;9.210;2023-04-03T12:17:27;8.20;96.90
46335;DHT22;32051;48.882;9.210;2023-04-03T12:19:54;8.50;97.10
46335;DHT22;32051;48.882;9.210;2023-04-03T12:22:21;9.20;99.70
46335;DHT22;32051;48.882;9.210;2023-04-03T12:24:51;9.40;98.20
46335;DHT22;32051;48.882;9.210;2023-04-03T12:27:36;9.40;99.90
46335;DHT22;32051;48.882;9.210;2023-04-03T12:30:05;9.40;99.90
46335;DHT22;32051;48.882;9.210;2023-04-03T12:32:58;9.20;99.90
46335;DHT22;32051;48.882;9.210;2023-04-03T12:35:58;9.10;99.90
46335;DHT22;32051;48.882;9.210;2023-04-03T12:46:45;8.60;94.70
46335;DHT22;32051;48.882;9.210;2023-04-03T12:52:30;8.70;94.70
46335;DHT22;32051;48.882;9.210;2023-04-03T12:54:59;8.60;93.70
46335;DHT22;32051;48.882;9.210;2023-04-03T12:57:27;9.00;98.90
46335;DHT22;32051;48.882;9.210;2023-04-03T12:59:53;8.40;94.60
46335;DHT22;32051;48.882;9.210;2023-04-03T13:02:21;8.30;94.50
46335;DHT22;32051;48.882;9.210;2023-04-03T13:04:49;8.30;95.30
46335;DHT22;32051;48.882;9.210;2023-04-03T13:07:21;8.20;94.80
46335;DHT22;32051;48.882;9.210;2023-04-03T13:10:00;8.20;95.20
46335;DHT22;32051;48.882;9.210;2023-04-03T13:12:26;8.20;95.50
46335;DHT22;32051;48.882;9.210;2023-04-03T13:14:57;8.10;96.00
46335;DHT22;32051;48.882;9.210;2023-04-03T13:17:24;8.10;96.10
46335;DHT22;32051;48.882;9.210;2023-04-03T13:19:50;8.10;96.10
46335;DHT22;32051;48.882;9.210;2023-04-03T13:22:35;8.20;95.80
46335;DHT22;32051;48.882;9.210;2023-04-03T13:25:07;8.30;95.80
46335;DHT22;32051;48.882;9.210;2023-04-03T13:42:38;9.10;99.90
46335;DHT22;32051;48.882;9.210;2023-04-03T13:45:30;9.40;99.90
46335;DHT22;32051;48.882;9.210;2023-04-03T13:48:37;9.60;97.50
46335;DHT22;32051;48.882;9.210;2023-04-03T13:51:13;9.80;95.60
46335;DHT22;32051;48.882;9.210;2023-04-03T13:53:48;9.80;95.30
46335;DHT22;32051;48.882;9.210;2023-04-03T13:56:38;9.70;99.90
46335;DHT22;32051;48.882;9.210;2023-04-03T14:04:59;9.70;99.90
46335;DHT22;32051;48.882;9.210;2023-04-03T14:07:20;9.60;99.90
46335;DHT22;32051;48.882;9.210;2023-04-03T14:27:27;9.40;99.90
46335;DHT22;32051;48.882;9.210;2023-04-03T14:29:54;9.30;99.90
46335;DHT22;32051;48.882;9.210;2023-04-03T14:32:22;9.30;99.90
46335;DHT22;32051;48.882;9.210;2023-04-03T14:47:14;9.40;99.90
46335;DHT22;32051;48.882;9.210;2023-04-03T14:49:41;9.60;99.90
46335;DHT22;32051;48.882;9.210;2023-04-03T15:29:24;8.60;88.70
46335;DHT22;32051;48.882;9.210;2023-04-03T15:31:52;8.40;99.90
46335;DHT22;32051;48.882;9.210;2023-04-03T15:34:18;8.20;99.90
46335;DHT22;32051;48.882;9.210;2023-04-03T15:36:44;8.20;91.00
46335;DHT22;32051;48.882;9.210;2023-04-03T15:39:10;8.10;90.30
46335;DHT22;32051;48.882;9.210;2023-04-03T15:41:35;8.10;90.90
46335;DHT22;32051;48.882;9.210;2023-04-03T15:44:01;8.10;90.90
46335;DHT22;32051;48.882;9.210;2023-04-03T15:46:27;8.20;90.50
46335;DHT22;32051;48.882;9.210;2023-04-03T15:48:52;8.40;90.90
46335;DHT22;32051;48.882;9.210;2023-04-03T15:51:18;8.50;91.30
46335;DHT22;32051;48.882;9.210;2023-04-03T15:53:44;8.70;90.30
46335;DHT22;32051;48.882;9.210;2023-04-03T15:56:09;8.70;90.60
46335;DHT22;32051;48.882;9.210;2023-04-03T15:58:37;8.70;90.00
46335;DHT22;32051;48.882;9.210;2023-04-03T16:01:03;8.70;90.30
46335;DHT22;32051;48.882;9.210;2023-04-03T16:05:56;8.40;89.30
46335;DHT22;32051;48.882;9.210;2023-04-03T16:08:22;8.30;99.90
46335;DHT22;32051;48.882;9.210;2023-04-03T16:10:48;8.10;99.90
46335;DHT22;32051;48.882;9.210;2023-04-03T16:13:14;7.90;99.90
46335;DHT22;32051;48.882;9.210;2023-04-03T16:15:40;7.80;99.90
46335;DHT22;32051;48.882;9.210;2023-04-03T16:18:07;7.70;99.90
46335;DHT22;32051;48.882;9.210;2023-04-03T16:20:34;7.70;99.90
46335;DHT22;32051;48.882;9.210;2023-04-03T16:23:00;7.80;99.90
46335;DHT22;32051;48.882;9.210;2023-04-03T16:25:27;7.90;99.90
46335;DHT22;32051;48.882;9.210;2023-04-03T16:27:52;7.90;99.90
46335;DHT22;32051;48.882;9.210;2023-04-03T16:30:18;7.80;91.30
46335;DHT22;32051;48.882;9.210;2023-04-03T16:32:44;7.80;91.90
46335;DHT22;32051;48.882;9.210;2023-04-03T16:35:11;7.80;92.40
46335;DHT22;32051;48.882;9.210;2023-04-03T16:37:37;7.80;99.90
46335;DHT22;32051;48.882;9.210;2023-04-03T16:40:05;7.60;99.90
46335;DHT22;32051;48.882;9.210;2023-04-03T16:42:31;7.60;99.90
46335;DHT22;32051;48.882;9.210;2023-04-03T16:44:57;7.40;99.90
46335;DHT22;32051;48.882;9.210;2023-04-03T16:47:25;7.30;99.90
46335;DHT22;32051;48.882;9.210;2023-04-03T16:49:51;7.30;99.90
46335;DHT22;32051;48.882;9.210;2023-04-03T16:52:16;7.20;99.90
46335;DHT22;32051;48.882;9.210;2023-04-03T16:57:09;7.20;99.90
46335;DHT22;32051;48.882;9.210;2023-04-03T16:59:34;7.30;99.90
46335;DHT22;32051;48.882;9.210;2023-04-03T17:02:00;7.30;99.90
46335;DHT22;32051;48.882;9.210;2023-04-03T17:04:26;7.30;99.90
46335;DHT22;32051;48.882;9.210;2023-04-03T17:06:52;7.30;99.90
46335;DHT22;32051;48.882;9.210;2023-04-03T17:09:17;7.30;99.90
